createdAt,value
2023-01-09T00:01:47.507Z,5.73
2023-01-09T00:04:36.037Z,6.70
2023-01-09T00:07:24.516Z,5.70
2023-01-09T00:10:15.397Z,6.00
2023-01-09T00:13:03.942Z,5.50
2023-01-09T00:15:52.460Z,5.70
2023-01-09T00:18:42.322Z,4.33
2023-01-09T00:21:30.802Z,3.53
2023-01-09T00:24:20.427Z,1.93
2023-01-09T00:27:08.924Z,2.27
2023-01-09T00:29:57.410Z,1.90
2023-01-09T00:32:46.292Z,1.73
2023-01-09T00:35:36.362Z,1.43
2023-01-09T00:38:24.866Z,1.50
2023-01-09T00:41:16.190Z,1.50
2023-01-09T00:44:08.693Z,1.33
2023-01-09T00:47:00.302Z,1.60
2023-01-09T00:49:49.061Z,1.80
2023-01-09T00:52:40.898Z,1.60
2023-01-09T00:55:29.382Z,1.30
2023-01-09T00:58:18.240Z,1.70
2023-01-09T01:01:07.287Z,1.30
2023-01-09T01:03:56.136Z,1.10
2023-01-09T01:07:13.702Z,0.93
2023-01-09T01:10:03.708Z,1.20
2023-01-09T01:12:53.121Z,1.00
2023-01-09T01:15:42.896Z,1.13
2023-01-09T01:18:31.335Z,1.00
2023-01-09T01:21:19.968Z,1.00
2023-01-09T01:24:08.429Z,1.10
2023-01-09T01:26:58.272Z,1.20
2023-01-09T01:29:46.843Z,0.97
2023-01-09T01:32:35.333Z,1.00
2023-01-09T01:35:24.288Z,0.80
2023-01-09T01:38:12.777Z,1.10
2023-01-09T01:41:02.249Z,1.07
2023-01-09T01:43:54.264Z,1.27
2023-01-09T01:46:42.709Z,1.30
2023-01-09T01:49:31.371Z,0.90
2023-01-09T01:52:20.989Z,0.80
2023-01-09T01:55:10.992Z,1.10
2023-01-09T01:58:02.858Z,1.00
2023-01-09T02:00:52.955Z,1.20
2023-01-09T02:03:42.845Z,1.00
2023-01-09T02:06:31.783Z,0.80
2023-01-09T02:09:22.798Z,1.00
2023-01-09T02:12:18.928Z,1.00
2023-01-09T02:15:09.819Z,0.90
2023-01-09T02:18:20.938Z,0.90
2023-01-09T02:21:15.698Z,1.00
2023-01-09T02:24:21.305Z,1.07
2023-01-09T02:27:28.400Z,0.90
2023-01-09T02:30:38.747Z,1.20
2023-01-09T02:33:39.441Z,1.10
2023-01-09T02:36:32.720Z,1.20
2023-01-09T02:39:25.625Z,1.17
2023-01-09T02:42:17.239Z,0.90
2023-01-09T02:45:06.463Z,1.10
2023-01-09T02:47:56.298Z,1.00
2023-01-09T02:50:49.544Z,1.33
2023-01-09T02:53:50.419Z,1.30
2023-01-09T02:56:53.912Z,1.30
2023-01-09T02:59:53.906Z,1.30
2023-01-09T03:02:47.173Z,1.30
2023-01-09T03:05:42.033Z,1.30
2023-01-09T03:08:36.193Z,1.47
2023-01-09T03:11:25.902Z,1.30
2023-01-09T03:14:17.369Z,1.40
2023-01-09T03:17:09.131Z,1.30
2023-01-09T03:19:58.440Z,1.23
2023-01-09T03:22:54.898Z,1.10
2023-01-09T03:25:43.364Z,1.13
2023-01-09T03:28:31.861Z,1.20
2023-01-09T03:31:20.380Z,1.23
2023-01-09T03:34:08.981Z,1.10
2023-01-09T03:36:57.452Z,1.20
2023-01-09T03:39:47.309Z,1.03
2023-01-09T03:42:35.791Z,1.30
2023-01-09T03:45:24.217Z,1.23
2023-01-09T03:48:12.655Z,1.20
2023-01-09T03:51:01.145Z,1.00
2023-01-09T03:53:49.617Z,1.30
2023-01-09T03:56:39.422Z,1.00
2023-01-09T03:59:27.927Z,1.20
2023-01-09T04:02:16.535Z,1.10
2023-01-09T04:05:05.593Z,1.50
2023-01-09T04:07:54.017Z,1.20
2023-01-09T04:10:45.330Z,2.00
2023-01-09T04:13:35.144Z,1.20
2023-01-09T04:16:23.598Z,1.20
2023-01-09T04:19:12.065Z,1.33
2023-01-09T04:22:00.564Z,1.00
2023-01-09T04:24:49.032Z,1.27
2023-01-09T04:27:37.667Z,1.30
2023-01-09T04:30:27.458Z,1.17
2023-01-09T04:33:15.882Z,1.20
2023-01-09T04:36:04.706Z,1.20
2023-01-09T04:38:53.268Z,1.23
2023-01-09T04:41:50.468Z,1.20
2023-01-09T04:44:38.981Z,1.30
2023-01-09T04:47:30.986Z,1.00
2023-01-09T04:50:19.582Z,1.10
2023-01-09T04:53:08.030Z,1.30
2023-01-09T04:55:56.483Z,1.47
2023-01-09T04:58:44.924Z,1.20
2023-01-09T05:01:33.516Z,1.43
2023-01-09T05:04:23.381Z,1.60
2023-01-09T05:07:11.844Z,1.00
2023-01-09T05:10:00.300Z,1.30
2023-01-09T05:12:48.733Z,1.20
2023-01-09T05:15:37.301Z,1.60
2023-01-09T05:18:25.789Z,1.30
2023-01-09T05:21:15.641Z,1.20
2023-01-09T05:24:04.121Z,1.20
2023-01-09T05:26:52.564Z,1.40
2023-01-09T05:29:41.027Z,1.30
2023-01-09T05:32:29.499Z,1.20
2023-01-09T05:35:18.053Z,1.33
2023-01-09T05:38:08.267Z,1.10
2023-01-09T05:40:56.724Z,1.40
2023-01-09T05:43:45.242Z,1.30
2023-01-09T05:46:33.774Z,1.17
2023-01-09T05:49:22.243Z,1.20
2023-01-09T05:52:10.681Z,1.40
2023-01-09T05:55:00.519Z,1.10
2023-01-09T05:57:49.137Z,1.17
2023-01-09T06:00:37.632Z,1.70
2023-01-09T06:03:26.080Z,1.20
2023-01-09T06:06:14.619Z,1.77
2023-01-09T06:09:03.629Z,1.43
2023-01-09T06:11:54.688Z,1.30
2023-01-09T06:14:43.111Z,1.50
2023-01-09T06:17:31.599Z,1.13
2023-01-09T06:20:20.224Z,1.60
2023-01-09T06:23:08.724Z,1.50
2023-01-09T06:25:57.169Z,1.60
2023-01-09T06:28:46.967Z,1.50
2023-01-09T06:31:35.567Z,1.33
2023-01-09T06:34:24.090Z,1.40
2023-01-09T06:37:12.626Z,1.30
2023-01-09T06:40:01.068Z,1.97
2023-01-09T06:42:50.280Z,1.67
2023-01-09T06:45:40.096Z,1.73
2023-01-09T06:48:28.581Z,2.20
2023-01-09T06:51:17.092Z,1.60
2023-01-09T06:54:05.653Z,1.90
2023-01-09T06:56:54.099Z,1.70
2023-01-09T06:59:42.716Z,1.47
2023-01-09T07:02:32.469Z,1.60
2023-01-09T07:05:20.935Z,2.03
2023-01-09T07:08:09.784Z,1.93
2023-01-09T07:10:59.094Z,1.97
2023-01-09T07:13:47.552Z,1.80
2023-01-09T07:16:36.003Z,1.60
2023-01-09T07:19:26.013Z,1.80
2023-01-09T07:22:14.578Z,3.07
2023-01-09T07:25:03.039Z,2.00
2023-01-09T07:27:51.569Z,1.80
2023-01-09T07:30:40.105Z,2.03
2023-01-09T07:33:28.621Z,1.70
2023-01-09T07:36:18.451Z,1.60
2023-01-09T07:39:06.915Z,1.50
2023-01-09T07:41:55.414Z,2.47
2023-01-09T07:44:43.861Z,1.50
2023-01-09T07:47:32.350Z,1.93
2023-01-09T07:50:20.794Z,1.70
2023-01-09T07:53:10.618Z,1.33
2023-01-09T07:55:59.077Z,1.80
2023-01-09T07:58:47.586Z,1.97
2023-01-09T08:01:36.251Z,2.37
2023-01-09T08:04:25.088Z,1.80
2023-01-09T08:07:13.650Z,1.73
2023-01-09T08:10:03.470Z,1.67
2023-01-09T08:12:52.141Z,1.60
2023-01-09T08:15:40.644Z,1.80
2023-01-09T08:18:29.170Z,1.60
2023-01-09T08:21:17.670Z,1.40
2023-01-09T08:24:06.572Z,1.90
2023-01-09T08:26:56.391Z,1.50
2023-01-09T08:29:44.851Z,2.23
2023-01-09T08:32:33.304Z,2.00
2023-01-09T08:35:22.164Z,1.70
2023-01-09T08:38:11.050Z,1.80
2023-01-09T08:40:59.516Z,1.50
2023-01-09T08:44:06.986Z,1.50
2023-01-09T08:47:07.256Z,1.60
2023-01-09T08:49:57.799Z,1.40
2023-01-09T08:52:46.267Z,1.50
2023-01-09T08:55:34.770Z,1.27
2023-01-09T08:58:23.263Z,1.10
2023-01-09T09:01:13.148Z,1.60
2023-01-09T09:04:01.604Z,1.43
2023-01-09T09:06:50.121Z,1.50
2023-01-09T09:09:38.556Z,1.70
2023-01-09T09:12:27.059Z,1.30
2023-01-09T09:15:23.430Z,1.30
2023-01-09T09:18:13.315Z,1.40
2023-01-09T09:21:01.821Z,1.50
2023-01-09T09:23:50.246Z,1.60
2023-01-09T09:26:38.724Z,1.40
2023-01-09T09:29:27.250Z,1.27
2023-01-09T09:32:15.928Z,1.63
2023-01-09T09:35:06.488Z,1.13
2023-01-09T09:37:56.290Z,1.43
2023-01-09T09:40:59.325Z,1.60
2023-01-09T09:44:25.187Z,1.67
2023-01-09T09:47:24.517Z,1.50
2023-01-09T09:50:27.070Z,1.50
2023-01-09T09:53:20.072Z,1.50
2023-01-09T09:56:11.638Z,1.70
2023-01-09T09:59:03.656Z,1.30
2023-01-09T10:01:56.116Z,1.47
2023-01-09T10:04:50.069Z,1.80
2023-01-09T10:07:44.563Z,1.30
2023-01-09T10:10:37.234Z,1.33
2023-01-09T10:13:43.778Z,1.50
2023-01-09T10:16:43.021Z,1.43
2023-01-09T10:19:47.827Z,1.53
2023-01-09T10:22:45.679Z,1.87
2023-01-09T10:25:42.745Z,1.83
2023-01-09T10:28:49.890Z,1.50
2023-01-09T10:31:46.311Z,1.50
2023-01-09T10:34:46.654Z,1.30
2023-01-09T10:37:38.297Z,1.60
2023-01-09T10:40:31.405Z,1.50
2023-01-09T10:43:28.948Z,1.30
2023-01-09T10:46:20.359Z,1.20
2023-01-09T10:49:12.297Z,1.70
2023-01-09T10:52:06.729Z,1.40
2023-01-09T10:54:57.240Z,1.60
2023-01-09T10:57:49.889Z,1.53
2023-01-09T11:00:40.058Z,1.40
2023-01-09T11:03:29.293Z,1.70
2023-01-09T11:06:22.227Z,1.77
2023-01-09T11:09:10.706Z,1.57
2023-01-09T11:11:59.128Z,1.43
2023-01-09T11:14:48.968Z,1.87
2023-01-09T11:17:37.445Z,1.70
2023-01-09T11:20:28.707Z,1.57
2023-01-09T11:23:32.307Z,1.57
2023-01-09T11:26:25.677Z,2.47
2023-01-09T11:29:15.723Z,1.60
2023-01-09T11:32:05.679Z,1.70
2023-01-09T11:34:54.177Z,1.60
2023-01-09T11:37:42.885Z,1.50
2023-01-09T11:40:36.997Z,2.37
2023-01-09T11:43:32.670Z,2.17
2023-01-09T11:46:35.695Z,1.70
2023-01-09T11:49:28.190Z,1.70
2023-01-09T11:52:19.555Z,1.77
2023-01-09T11:55:13.120Z,1.90
2023-01-09T11:58:01.598Z,1.90
2023-01-09T12:00:56.230Z,2.13
2023-01-09T12:04:09.507Z,1.97
2023-01-09T12:07:24.437Z,1.90
2023-01-09T12:10:26.998Z,1.97
2023-01-09T12:13:26.259Z,1.70
2023-01-09T12:16:20.636Z,2.10
2023-01-09T12:19:21.437Z,1.90
2023-01-09T12:22:17.599Z,1.80
2023-01-09T12:25:23.470Z,1.77
2023-01-09T12:28:39.563Z,2.20
2023-01-09T12:31:39.286Z,1.87
2023-01-09T12:34:41.769Z,2.20
2023-01-09T12:37:46.627Z,2.37
2023-01-09T12:40:47.584Z,2.23
2023-01-09T12:43:43.514Z,1.80
2023-01-09T12:46:37.270Z,1.70
2023-01-09T12:49:30.139Z,1.70
2023-01-09T12:52:23.273Z,1.70
2023-01-09T12:55:18.364Z,1.70
2023-01-09T12:58:13.911Z,1.77
2023-01-09T13:01:07.243Z,1.80
2023-01-09T13:04:10.602Z,1.80
2023-01-09T13:07:02.589Z,1.83
2023-01-09T13:09:54.428Z,1.70
2023-01-09T13:12:47.034Z,1.60
2023-01-09T13:15:38.937Z,1.87
2023-01-09T13:18:32.330Z,1.97
2023-01-09T13:21:20.982Z,1.70
2023-01-09T13:24:16.579Z,2.10
2023-01-09T13:27:07.582Z,1.80
2023-01-09T13:30:04.909Z,2.07
2023-01-09T13:33:00.008Z,2.50
2023-01-09T13:35:50.934Z,2.10
2023-01-09T13:38:39.666Z,1.80
2023-01-09T13:41:46.604Z,1.93
2023-01-09T13:44:35.155Z,2.20
2023-01-09T13:47:27.858Z,1.70
2023-01-09T13:50:25.051Z,1.87
2023-01-09T13:53:46.899Z,2.03
2023-01-09T13:57:17.907Z,1.90
2023-01-09T14:00:43.868Z,1.50
2023-01-09T14:03:38.065Z,1.60
2023-01-09T14:06:28.058Z,2.27
2023-01-09T14:09:20.309Z,1.73
2023-01-09T14:12:08.896Z,2.10
2023-01-09T14:15:02.007Z,2.10
2023-01-09T14:17:59.893Z,1.97
2023-01-09T14:20:55.900Z,2.60
2023-01-09T14:23:53.341Z,2.10
2023-01-09T14:26:45.549Z,1.50
2023-01-09T14:29:43.424Z,2.10
2023-01-09T14:32:45.169Z,1.90
2023-01-09T14:35:42.166Z,1.67
2023-01-09T14:38:33.609Z,1.63
2023-01-09T14:41:39.666Z,2.10
2023-01-09T14:44:30.621Z,1.60
2023-01-09T14:47:22.505Z,1.90
2023-01-09T14:50:18.466Z,1.83
2023-01-09T14:53:08.970Z,1.40
2023-01-09T14:56:00.305Z,1.50
2023-01-09T14:58:50.761Z,1.90
2023-01-09T15:01:41.341Z,2.23
2023-01-09T15:04:34.811Z,1.60
2023-01-09T15:07:25.902Z,2.33
2023-01-09T15:10:17.847Z,1.70
2023-01-09T15:13:08.995Z,1.47
2023-01-09T15:15:57.652Z,1.73
2023-01-09T15:18:49.129Z,1.97
2023-01-09T15:21:37.655Z,1.90
2023-01-09T15:24:28.684Z,1.70
2023-01-09T15:27:19.146Z,1.90
2023-01-09T15:30:19.045Z,1.67
2023-01-09T15:33:12.463Z,1.90
2023-01-09T15:36:02.562Z,1.60
2023-01-09T15:38:51.830Z,2.00
2023-01-09T15:41:57.754Z,1.90
2023-01-09T15:44:48.362Z,2.07
2023-01-09T15:47:38.219Z,1.80
2023-01-09T15:50:28.707Z,1.80
2023-01-09T15:53:18.938Z,1.80
2023-01-09T15:56:16.624Z,2.00
2023-01-09T15:59:23.564Z,2.20
2023-01-09T16:02:31.990Z,2.03
2023-01-09T16:05:22.102Z,1.70
2023-01-09T16:08:21.505Z,2.80
2023-01-09T16:11:11.204Z,2.13
2023-01-09T16:14:11.016Z,2.40
2023-01-09T16:17:01.170Z,1.80
2023-01-09T16:19:51.485Z,2.10
2023-01-09T16:22:54.161Z,2.10
2023-01-09T16:25:42.655Z,2.87
2023-01-09T16:28:31.281Z,3.33
2023-01-09T16:31:23.746Z,3.10
2023-01-09T16:34:13.547Z,2.30
2023-01-09T16:37:03.349Z,2.10
2023-01-09T16:40:31.993Z,2.70
2023-01-09T16:43:20.909Z,2.53
2023-01-09T16:46:09.665Z,2.17
2023-01-09T16:48:58.226Z,2.00
2023-01-09T16:51:46.882Z,2.50
2023-01-09T16:54:35.330Z,2.10
2023-01-09T16:57:23.894Z,2.47
2023-01-09T17:00:18.142Z,2.00
2023-01-09T17:03:06.751Z,2.80
2023-01-09T17:05:57.308Z,2.20
2023-01-09T17:08:46.942Z,2.20
2023-01-09T17:11:35.415Z,2.10
2023-01-09T17:14:24.526Z,3.00
2023-01-09T17:17:14.412Z,2.63
2023-01-09T17:20:07.395Z,2.40
2023-01-09T17:22:55.982Z,2.10
2023-01-09T17:26:02.085Z,1.97
2023-01-09T17:28:51.941Z,2.10
2023-01-09T17:31:40.513Z,2.40
2023-01-09T17:34:30.344Z,2.87
2023-01-09T17:37:20.175Z,2.17
2023-01-09T17:40:16.309Z,2.47
2023-01-09T17:43:04.855Z,2.30
2023-01-09T17:45:53.376Z,2.30
2023-01-09T17:48:41.849Z,2.20
2023-01-09T17:51:31.821Z,2.20
2023-01-09T17:54:21.448Z,2.00
2023-01-09T17:57:12.216Z,2.10
2023-01-09T18:00:00.771Z,2.03
2023-01-09T18:02:49.587Z,2.87
2023-01-09T18:05:38.215Z,2.20
2023-01-09T18:08:28.211Z,2.30
2023-01-09T18:11:18.229Z,2.50
2023-01-09T18:14:06.739Z,2.67
2023-01-09T18:16:55.403Z,2.60
2023-01-09T18:19:44.292Z,2.80
2023-01-09T18:22:33.895Z,2.20
2023-01-09T18:25:23.688Z,2.30
2023-01-09T18:28:15.205Z,2.23
2023-01-09T18:31:03.911Z,2.30
2023-01-09T18:33:53.829Z,2.13
2023-01-09T18:36:42.427Z,2.47
2023-01-09T18:39:31.107Z,2.77
2023-01-09T18:42:21.035Z,2.10
2023-01-09T18:45:10.763Z,2.00
2023-01-09T18:47:59.415Z,2.27
2023-01-09T18:50:48.056Z,2.50
2023-01-09T18:53:36.538Z,2.10
2023-01-09T18:56:25.550Z,2.27
2023-01-09T18:59:15.545Z,2.60
2023-01-09T19:02:04.133Z,2.67
2023-01-09T19:04:53.311Z,2.80
2023-01-09T19:07:41.834Z,2.60
2023-01-09T19:10:30.421Z,2.70
2023-01-09T19:13:19.000Z,3.20
2023-01-09T19:16:09.883Z,3.13
2023-01-09T19:19:01.941Z,3.63
2023-01-09T19:21:50.454Z,3.63
2023-01-09T19:24:38.976Z,3.30
2023-01-09T19:27:29.611Z,4.17
2023-01-09T19:30:18.902Z,3.70
2023-01-09T19:33:09.083Z,3.30
2023-01-09T19:35:57.634Z,3.20
2023-01-09T19:38:46.203Z,3.30
2023-01-09T19:41:34.717Z,3.60
2023-01-09T19:44:23.289Z,3.50
2023-01-09T19:47:14.025Z,2.57
2023-01-09T19:50:05.225Z,4.23
2023-01-09T19:52:53.917Z,4.23
2023-01-09T19:55:42.725Z,4.00
2023-01-09T19:58:31.179Z,5.43
2023-01-09T20:01:22.153Z,3.87
2023-01-09T20:04:14.961Z,4.23
2023-01-09T20:07:06.014Z,4.50
2023-01-09T20:09:54.541Z,4.17
2023-01-09T20:12:45.416Z,3.80
2023-01-09T20:15:34.003Z,3.70
2023-01-09T20:18:22.474Z,3.53
2023-01-09T20:21:11.315Z,3.60
2023-01-09T20:24:02.243Z,3.90
2023-01-09T20:26:51.485Z,4.67
2023-01-09T20:29:39.964Z,3.60
2023-01-09T20:32:29.933Z,3.90
2023-01-09T20:35:18.437Z,3.83
2023-01-09T20:38:08.987Z,4.20
2023-01-09T20:40:58.899Z,3.63
2023-01-09T20:43:47.371Z,3.70
2023-01-09T20:46:37.949Z,3.77
2023-01-09T20:49:26.444Z,3.80
2023-01-09T20:52:15.048Z,3.50
2023-01-09T20:55:04.677Z,4.00
2023-01-09T20:57:54.638Z,4.00
2023-01-09T21:00:43.170Z,3.60
2023-01-09T21:03:31.777Z,3.50
2023-01-09T21:06:21.795Z,3.47
2023-01-09T21:09:10.291Z,3.87
2023-01-09T21:11:58.884Z,3.37
2023-01-09T21:14:48.732Z,4.40
2023-01-09T21:17:38.150Z,3.60
2023-01-09T21:20:26.667Z,3.60
2023-01-09T21:23:15.185Z,3.30
2023-01-09T21:26:09.217Z,3.00
2023-01-09T21:28:58.656Z,2.90
2023-01-09T21:31:48.576Z,2.73
2023-01-09T21:34:37.237Z,2.63
2023-01-09T21:37:25.767Z,3.30
2023-01-09T21:40:16.678Z,2.63
2023-01-09T21:43:22.701Z,2.83
2023-01-09T21:46:31.841Z,3.00
2023-01-09T21:49:23.136Z,3.00
2023-01-09T21:52:12.798Z,2.63
2023-01-09T21:55:01.249Z,2.70
2023-01-09T21:57:49.761Z,2.57
2023-01-09T22:00:39.049Z,2.20
2023-01-09T22:03:28.020Z,2.37
2023-01-09T22:06:17.881Z,2.63
2023-01-09T22:09:06.320Z,2.57
2023-01-09T22:11:54.920Z,2.50
2023-01-09T22:14:43.547Z,2.20
2023-01-09T22:17:32.185Z,2.00
2023-01-09T22:20:20.740Z,1.70
2023-01-09T22:23:10.664Z,2.27
2023-01-09T22:26:00.576Z,1.83
2023-01-09T22:28:49.538Z,2.37
2023-01-09T22:31:39.848Z,1.90
2023-01-09T22:34:29.087Z,1.90
2023-01-09T22:37:17.606Z,1.60
2023-01-09T22:40:08.905Z,1.80
2023-01-09T22:42:57.440Z,2.33
2023-01-09T22:45:45.973Z,1.37
2023-01-09T22:48:34.742Z,2.50
2023-01-09T22:51:26.106Z,1.90
2023-01-09T22:54:14.662Z,1.80
2023-01-09T22:57:04.609Z,1.77
2023-01-09T22:59:53.137Z,1.60
2023-01-09T23:02:41.693Z,1.70
2023-01-09T23:05:30.226Z,1.77
2023-01-09T23:08:18.684Z,1.90
2023-01-09T23:11:09.241Z,2.00
2023-01-09T23:13:59.088Z,2.13
2023-01-09T23:16:47.582Z,2.00
2023-01-09T23:19:36.268Z,2.33
2023-01-09T23:22:25.887Z,2.17
2023-01-09T23:25:15.643Z,2.20
2023-01-09T23:28:04.112Z,2.50
2023-01-09T23:30:54.266Z,2.63
2023-01-09T23:33:42.738Z,1.87
2023-01-09T23:36:31.278Z,2.33
2023-01-09T23:39:19.754Z,2.73
2023-01-09T23:42:25.824Z,3.13
2023-01-09T23:45:14.256Z,2.20
2023-01-09T23:48:04.142Z,2.70
2023-01-09T23:50:54.404Z,2.30
2023-01-09T23:53:42.851Z,2.53
2023-01-09T23:56:33.828Z,2.60
2023-01-09T23:59:22.269Z,2.37
